Time;durP1;ratioP1;P1;durP2;ratioP2;P2;SDS_P1;SDS_P2;PMS_P1;PMS_P2;Temp;Humidity;BMP_temperature;BMP_pressure;BME280_temperature;BME280_humidity;BME280_pressure;Samples;Min_cycle;Max_cycle;Signal;HPM_P1;HPM_P2
2022/08/02 00:00:14;;;;;;;5.97;3.45;;;12.20;99.90;;;;;;5046995;28;20048;-69
2022/08/02 00:02:41;;;;;;;6.50;3.42;;;12.30;99.90;;;;;;5059725;28;20080;-69
2022/08/02 00:05:07;;;;;;;7.60;3.60;;;12.30;99.90;;;;;;5065453;28;20044;-69
2022/08/02 00:07:34;;;;;;;7.38;3.08;;;12.30;99.90;;;;;;5083013;28;20794;-69
2022/08/02 00:10:00;;;;;;;5.15;3.50;;;12.30;99.90;;;;;;5066018;28;20068;-69
2022/08/02 00:12:25;;;;;;;6.95;3.45;;;12.20;99.90;;;;;;5055475;28;20405;-69
2022/08/02 00:14:51;;;;;;;5.20;3.08;;;12.20;99.90;;;;;;5067615;28;20040;-69
2022/08/02 00:17:17;;;;;;;6.82;3.15;;;12.20;99.90;;;;;;5066189;28;20045;-69
2022/08/02 00:19:43;;;;;;;7.85;3.92;;;12.10;99.90;;;;;;5052284;28;20451;-69
2022/08/02 00:22:09;;;;;;;6.55;3.10;;;12.20;99.90;;;;;;5054651;28;20049;-69
2022/08/02 00:24:34;;;;;;;6.65;3.50;;;12.20;99.90;;;;;;5066203;28;20131;-69
2022/08/02 00:27:02;;;;;;;9.65;3.78;;;12.20;99.90;;;;;;5082388;28;20144;-69
2022/08/02 00:29:29;;;;;;;11.07;4.60;;;12.30;99.90;;;;;;5075970;28;20052;-69
2022/08/02 00:31:56;;;;;;;7.90;4.38;;;12.40;99.90;;;;;;5079724;28;20040;-68
2022/08/02 00:34:21;;;;;;;12.48;5.00;;;12.50;99.90;;;;;;5104921;28;20055;-69
2022/08/02 00:36:47;;;;;;;10.75;4.72;;;12.60;99.90;;;;;;5079364;28;20041;-69
2022/08/02 00:39:13;;;;;;;8.80;5.55;;;12.70;99.90;;;;;;5068811;28;20072;-69
2022/08/02 00:41:51;;;;;;;12.25;5.40;;;12.80;99.90;;;;;;5089096;28;20036;-69
2022/08/02 00:44:19;;;;;;;12.98;5.45;;;13.00;99.90;;;;;;5087424;28;20097;-69
2022/08/02 00:46:45;;;;;;;8.15;3.72;;;13.20;99.90;;;;;;5080743;28;20393;-69
2022/08/02 00:49:11;;;;;;;8.40;3.70;;;13.20;99.90;;;;;;5097075;28;20044;-69
2022/08/02 00:51:37;;;;;;;6.57;3.83;;;13.10;99.90;;;;;;5080859;28;20182;-69
2022/08/02 00:54:04;;;;;;;6.70;4.28;;;13.10;99.90;;;;;;5079332;28;20047;-69
2022/08/02 00:56:29;;;;;;;10.45;5.22;;;13.00;99.90;;;;;;5070915;28;20044;-69
2022/08/02 00:58:55;;;;;;;12.32;4.70;;;13.10;99.90;;;;;;5072117;28;20517;-69
2022/08/02 01:01:37;;;;;;;12.30;4.90;;;13.10;99.90;;;;;;5088918;28;20044;-69
2022/08/02 01:04:07;;;;;;;9.77;4.53;;;13.10;99.90;;;;;;5086276;28;20591;-69
2022/08/02 01:06:34;;;;;;;9.25;4.85;;;13.20;99.90;;;;;;5080532;28;20209;-69
2022/08/02 01:09:01;;;;;;;11.85;4.90;;;13.20;99.90;;;;;;5086449;28;20047;-69
2022/08/02 01:11:27;;;;;;;10.30;5.53;;;13.20;99.90;;;;;;5084885;28;20072;-69
2022/08/02 01:13:57;;;;;;;12.45;6.30;;;13.20;99.90;;;;;;5072995;28;20083;-68
2022/08/02 01:16:26;;;;;;;13.77;5.18;;;13.30;99.90;;;;;;5079805;28;20041;-68
2022/08/02 01:19:00;;;;;;;13.37;6.00;;;13.40;99.90;;;;;;5084199;28;20051;-69
2022/08/02 01:21:40;;;;;;;11.60;5.60;;;13.40;99.90;;;;;;5082399;28;20065;-69
2022/08/02 01:24:28;;;;;;;18.23;7.20;;;13.50;99.90;;;;;;5085748;28;20136;-69
2022/08/02 01:27:28;;;;;;;15.15;5.55;;;13.50;99.90;;;;;;5058135;28;20053;-69
2022/08/02 01:29:57;;;;;;;16.63;6.53;;;13.60;99.90;;;;;;5067104;28;20512;-69
2022/08/02 01:32:30;;;;;;;10.38;5.50;;;13.60;99.90;;;;;;5056790;28;20045;-69
2022/08/02 01:35:04;;;;;;;13.57;5.75;;;13.60;99.90;;;;;;5060191;28;20075;-69
2022/08/02 01:37:41;;;;;;;16.30;5.88;;;13.60;99.90;;;;;;5066615;28;20342;-68
2022/08/02 01:40:10;;;;;;;16.30;6.45;;;13.60;99.90;;;;;;5062463;28;20652;-69
2022/08/02 01:42:39;;;;;;;13.68;5.20;;;13.60;99.90;;;;;;5055364;28;20040;-69
2022/08/02 01:45:07;;;;;;;16.38;6.43;;;13.50;99.90;;;;;;5075000;28;20056;-68
2022/08/02 01:47:37;;;;;;;13.65;5.55;;;13.50;99.90;;;;;;5063621;28;20059;-69
2022/08/02 01:50:06;;;;;;;10.30;5.63;;;13.50;99.90;;;;;;5075118;28;20098;-68
2022/08/02 01:52:35;;;;;;;15.00;6.35;;;13.50;99.90;;;;;;5064999;28;20475;-68
2022/08/02 01:55:15;;;;;;;15.38;5.93;;;13.40;99.90;;;;;;5064913;28;20040;-69
2022/08/02 01:57:51;;;;;;;9.95;4.93;;;13.40;99.90;;;;;;5055332;28;20045;-68
2022/08/02 02:00:19;;;;;;;9.98;5.28;;;13.20;99.90;;;;;;5078983;28;20057;-68
2022/08/02 02:02:48;;;;;;;12.07;5.95;;;13.20;99.90;;;;;;5060557;28;20045;-68
2022/08/02 02:05:18;;;;;;;17.52;5.78;;;13.30;99.90;;;;;;5052539;28;20060;-68
2022/08/02 02:07:44;;;;;;;;;;;13.30;99.90;;;;;;5066008;28;20040;-69
2022/08/02 02:10:16;;;;;;;17.17;6.80;;;13.20;99.90;;;;;;5059374;28;19924;-69
2022/08/02 02:12:49;;;;;;;11.82;6.13;;;13.10;99.90;;;;;;5082113;28;20036;-68
2022/08/02 02:15:16;;;;;;;11.38;5.95;;;13.20;99.90;;;;;;5058862;28;20049;-69
2022/08/02 02:17:45;;;;;;;9.57;5.97;;;13.10;99.90;;;;;;5059422;28;20749;-68
2022/08/02 02:20:21;;;;;;;11.27;6.75;;;13.00;99.90;;;;;;5073591;28;20045;-69
2022/08/02 02:22:47;;;;;;;12.77;6.68;;;13.10;99.90;;;;;;5067913;28;20440;-68
2022/08/02 02:25:14;;;;;;;14.75;6.93;;;13.10;99.90;;;;;;5082368;28;20064;-69
2022/08/02 02:27:54;;;;;;;10.98;6.60;;;13.10;99.90;;;;;;5086713;28;20130;-68
2022/08/02 02:30:24;;;;;;;12.93;6.97;;;13.10;99.90;;;;;;5086297;28;20059;-68
2022/08/02 02:32:54;;;;;;;14.13;6.60;;;13.10;99.90;;;;;;5062302;28;20041;-68
2022/08/02 02:35:21;;;;;;;10.15;6.97;;;13.10;99.90;;;;;;5087268;28;20518;-68
2022/08/02 02:37:50;;;;;;;9.75;6.70;;;13.10;99.90;;;;;;5063739;28;20040;-68
2022/08/02 02:40:16;;;;;;;14.52;6.70;;;13.10;99.90;;;;;;5082779;28;20050;-68
2022/08/02 02:42:43;;;;;;;13.77;7.22;;;13.10;99.90;;;;;;5074698;28;20056;-68
2022/08/02 02:45:11;;;;;;;15.90;7.53;;;13.10;99.90;;;;;;5085218;28;20060;-68
2022/08/02 02:47:38;;;;;;;14.07;7.70;;;13.10;99.90;;;;;;5083313;28;20040;-68
2022/08/02 02:50:05;;;;;;;13.35;8.00;;;13.10;99.90;;;;;;5077638;28;20060;-69
2022/08/02 02:52:31;;;;;;;14.50;7.60;;;13.10;99.90;;;;;;5107710;28;20039;-68
2022/08/02 02:54:58;;;;;;;12.68;6.97;;;13.10;99.90;;;;;;5082059;28;20052;-68
2022/08/02 02:57:24;;;;;;;12.43;7.20;;;13.10;99.90;;;;;;5075813;28;20052;-68
2022/08/02 02:59:50;;;;;;;14.05;6.80;;;13.10;99.90;;;;;;5073698;28;20098;-68
2022/08/02 03:02:17;;;;;;;11.90;7.03;;;13.10;99.90;;;;;;5099511;28;20044;-68
2022/08/02 03:04:44;;;;;;;15.13;7.75;;;13.10;99.90;;;;;;5078502;28;20056;-68
2022/08/02 03:07:10;;;;;;;8.50;6.97;;;13.10;99.90;;;;;;5099835;28;20051;-68
2022/08/02 03:09:35;;;;;;;15.82;7.25;;;13.10;99.90;;;;;;5099050;28;20107;-68
2022/08/02 03:12:02;;;;;;;14.20;7.80;;;13.10;99.90;;;;;;5066099;28;20079;-68
2022/08/02 03:14:28;;;;;;;9.95;6.90;;;13.10;99.90;;;;;;5088173;28;20040;-68
2022/08/02 03:16:54;;;;;;;11.57;7.25;;;13.10;99.90;;;;;;5076722;28;20128;-68
2022/08/02 03:19:21;;;;;;;12.85;7.35;;;13.10;99.90;;;;;;5078346;28;20123;-68
2022/08/02 03:21:48;;;;;;;13.85;8.25;;;13.10;99.90;;;;;;5084179;28;20048;-68
2022/08/02 03:24:14;;;;;;;11.95;6.70;;;13.20;99.90;;;;;;5053461;28;20056;-68
2022/08/02 03:26:40;;;;;;;12.52;7.05;;;13.20;99.90;;;;;;5097169;28;20126;-68
2022/08/02 03:29:07;;;;;;;10.80;7.47;;;13.10;99.90;;;;;;5100351;28;20044;-68
2022/08/02 03:31:34;;;;;;;15.45;7.55;;;13.10;99.90;;;;;;5076212;28;20079;-68
2022/08/02 03:34:01;;;;;;;13.50;7.50;;;13.10;99.90;;;;;;5085403;28;20051;-68
2022/08/02 03:36:31;;;;;;;22.17;8.85;;;13.10;99.90;;;;;;5084905;28;20401;-68
2022/08/02 03:38:58;;;;;;;13.07;7.60;;;13.10;99.90;;;;;;5080513;28;20036;-68
2022/08/02 03:41:24;;;;;;;20.05;7.28;;;13.00;99.90;;;;;;5099473;28;20042;-68
2022/08/02 03:43:52;;;;;;;15.27;8.02;;;13.00;99.90;;;;;;5085444;28;20536;-68
2022/08/02 03:46:22;;;;;;;14.23;7.25;;;13.00;99.90;;;;;;5104983;28;20044;-68
2022/08/02 03:48:50;;;;;;;14.30;7.43;;;13.10;99.90;;;;;;5091272;28;20047;-68
2022/08/02 03:51:16;;;;;;;10.88;6.78;;;13.00;99.90;;;;;;5075576;28;20076;-68
2022/08/02 03:53:42;;;;;;;14.43;7.55;;;12.90;99.90;;;;;;5104531;28;20047;-68
2022/08/02 03:56:08;;;;;;;14.38;7.35;;;12.90;99.90;;;;;;5072744;28;20087;-68
2022/08/02 03:58:34;;;;;;;12.55;7.30;;;12.80;99.90;;;;;;5084060;28;20047;-68
2022/08/02 04:01:00;;;;;;;15.35;8.02;;;12.80;99.90;;;;;;5094153;28;20036;-68
2022/08/02 04:03:26;;;;;;;11.98;6.97;;;12.80;99.90;;;;;;5098946;28;20032;-68
2022/08/02 04:05:52;;;;;;;10.85;7.65;;;12.80;99.90;;;;;;5093164;28;20725;-68
2022/08/02 04:08:18;;;;;;;14.20;7.32;;;12.80;99.90;;;;;;5099512;28;20048;-68
2022/08/02 04:13:36;;;;;;;11.00;6.88;;;12.80;99.90;;;;;;5098573;28;20048;-68
2022/08/02 04:16:21;;;;;;;10.48;6.72;;;12.80;99.90;;;;;;5096356;28;20110;-68
2022/08/02 04:19:01;;;;;;;11.52;7.00;;;12.90;99.90;;;;;;5074304;28;20051;-68
2022/08/02 04:21:34;;;;;;;15.02;7.70;;;12.90;99.90;;;;;;5083687;28;20048;-68
2022/08/02 04:24:02;;;;;;;15.40;8.18;;;12.90;99.90;;;;;;5059955;28;20055;-68
2022/08/02 04:26:30;;;;;;;11.68;7.88;;;12.90;99.90;;;;;;5075939;28;20052;-68
2022/08/02 04:28:56;;;;;;;13.98;7.20;;;12.90;99.90;;;;;;5056322;28;20102;-68
2022/08/02 04:31:22;;;;;;;12.32;6.38;;;13.00;99.90;;;;;;5081840;28;20095;-68
2022/08/02 04:33:49;;;;;;;13.15;7.22;;;13.00;99.90;;;;;;5072843;28;20036;-68
2022/08/02 04:36:14;;;;;;;15.10;7.07;;;13.00;99.90;;;;;;5073723;28;20056;-68
2022/08/02 04:38:41;;;;;;;13.00;6.70;;;13.00;99.90;;;;;;5079208;28;20050;-68
2022/08/02 04:41:07;;;;;;;13.20;6.57;;;13.10;99.90;;;;;;5087351;28;20470;-68
2022/08/02 04:43:33;;;;;;;15.02;6.80;;;13.10;99.90;;;;;;5096466;28;20047;-68
2022/08/02 04:46:01;;;;;;;11.55;6.88;;;13.10;99.90;;;;;;5097687;28;20048;-68
2022/08/02 04:48:27;;;;;;;11.43;6.70;;;13.10;99.90;;;;;;5082759;28;20076;-68
2022/08/02 04:50:53;;;;;;;14.70;7.40;;;13.10;99.90;;;;;;5099830;28;20044;-68
2022/08/02 04:53:19;;;;;;;15.45;7.63;;;13.10;99.90;;;;;;5085167;28;20044;-68
2022/08/02 04:55:45;;;;;;;12.32;7.15;;;13.10;99.90;;;;;;5083352;28;20546;-68
2022/08/02 04:58:12;;;;;;;14.13;7.38;;;13.10;99.90;;;;;;5074606;28;20040;-68
2022/08/02 05:00:38;;;;;;;9.90;6.65;;;13.20;99.90;;;;;;5105723;28;20086;-69
2022/08/02 05:03:03;;;;;;;12.85;6.82;;;13.20;99.90;;;;;;5087700;28;20045;-69
2022/08/02 05:05:29;;;;;;;12.80;6.72;;;13.20;99.90;;;;;;5098482;28;20048;-69
2022/08/02 05:07:55;;;;;;;16.75;7.75;;;13.20;99.90;;;;;;5086612;28;20040;-69
2022/08/02 05:10:22;;;;;;;12.60;6.88;;;13.30;99.90;;;;;;5080492;28;20493;-69
2022/08/02 05:12:48;;;;;;;13.75;7.22;;;13.30;99.90;;;;;;5102165;28;20139;-69
2022/08/02 05:15:17;;;;;;;16.35;8.10;;;13.30;99.90;;;;;;5096878;28;20052;-69
2022/08/02 05:17:45;;;;;;;14.35;7.10;;;13.40;99.90;;;;;;5094243;28;20039;-69
2022/08/02 05:20:12;;;;;;;14.10;7.20;;;13.40;99.90;;;;;;5087142;28;20047;-69
2022/08/02 05:22:39;;;;;;;11.38;6.03;;;13.50;99.90;;;;;;5087700;28;20040;-69
2022/08/02 05:25:05;;;;;;;11.57;7.28;;;13.50;99.90;;;;;;5096982;28;20052;-69
2022/08/02 05:27:32;;;;;;;20.65;7.75;;;13.50;99.90;;;;;;5089020;28;20048;-69
2022/08/02 05:29:58;;;;;;;12.27;6.47;;;13.60;99.90;;;;;;5088585;28;20052;-69
2022/08/02 05:32:24;;;;;;;12.93;6.63;;;13.60;99.90;;;;;;5089657;28;20040;-69
2022/08/02 05:34:50;;;;;;;14.68;7.22;;;13.70;99.90;;;;;;5100180;28;20519;-68
2022/08/02 05:37:16;;;;;;;14.00;6.72;;;13.70;99.90;;;;;;5084299;28;20051;-69
2022/08/02 05:39:42;;;;;;;12.93;7.38;;;13.80;99.90;;;;;;5086930;28;20052;-68
2022/08/02 05:42:08;;;;;;;12.45;6.72;;;13.90;99.90;;;;;;5072386;28;20056;-71
2022/08/02 05:44:33;;;;;;;15.20;7.57;;;13.90;99.90;;;;;;5075957;28;20067;-70
2022/08/02 05:46:59;;;;;;;18.83;7.45;;;14.00;99.90;;;;;;5082398;28;20052;-68
2022/08/02 05:49:25;;;;;;;15.57;7.50;;;14.10;99.90;;;;;;5086764;28;20048;-68
2022/08/02 05:52:16;;;;;;;11.50;7.03;;;14.10;99.90;;;;;;5081853;28;20075;-68
2022/08/02 05:54:52;;;;;;;12.43;7.60;;;14.20;99.90;;;;;;5101942;28;20040;-68
2022/08/02 05:57:47;;;;;;;15.10;7.32;;;14.30;99.90;;;;;;5082567;28;20090;-67
2022/08/02 06:00:14;;;;;;;11.05;6.85;;;14.30;99.90;;;;;;5104648;28;20043;-68
2022/08/02 06:03:01;;;;;;;11.63;6.30;;;14.40;99.90;;;;;;5086907;28;20541;-68
2022/08/02 06:05:31;;;;;;;11.18;6.07;;;14.50;99.90;;;;;;5086527;28;20056;-68
2022/08/02 06:07:58;;;;;;;10.88;5.03;;;14.70;99.90;;;;;;5103296;28;20530;-68
2022/08/02 06:10:26;;;;;;;15.38;6.47;;;14.80;99.90;;;;;;5087497;28;20040;-68
2022/08/02 06:13:25;;;;;;;9.40;4.95;;;14.90;99.90;;;;;;5084355;28;20085;-68
2022/08/02 06:15:51;;;;;;;14.93;5.55;;;15.10;99.90;;;;;;5026710;28;20546;-68
2022/08/02 06:18:18;;;;;;;11.77;4.68;;;15.20;99.90;;;;;;5040358;28;20133;-69
2022/08/02 06:20:49;;;;;;;11.63;4.82;;;15.30;99.90;;;;;;5044285;28;20572;-68
2022/08/02 06:23:16;;;;;;;12.65;5.07;;;15.40;99.90;;;;;;5041722;28;20042;-67
2022/08/02 06:25:46;;;;;;;9.93;4.35;;;15.50;99.90;;;;;;5040975;28;20053;-69
2022/08/02 06:28:12;;;;;;;11.15;4.20;;;15.60;99.90;;;;;;5024592;28;20183;-69
2022/08/02 06:30:39;;;;;;;11.10;3.78;;;15.70;99.90;;;;;;5040600;28;20136;-69
2022/08/02 06:33:05;;;;;;;13.73;4.45;;;15.80;99.90;;;;;;5026022;28;20120;-69
2022/08/02 06:35:43;;;;;;;10.05;3.85;;;15.90;99.90;;;;;;5037168;28;20045;-71
2022/08/02 06:38:16;;;;;;;10.23;4.22;;;15.90;99.90;;;;;;5054430;28;20050;-77
2022/08/02 06:40:52;;;;;;;9.48;4.32;;;16.10;99.90;;;;;;5043929;28;20053;-71
2022/08/02 06:43:37;;;;;;;12.20;4.38;;;16.10;99.90;;;;;;4954765;28;20119;-68
2022/08/02 06:46:02;;;;;;;10.65;4.07;;;16.30;99.90;;;;;;4998672;28;20582;-69
2022/08/02 06:48:30;;;;;;;12.80;3.83;;;16.40;99.90;;;;;;5024657;28;20046;-68
2022/08/02 06:50:55;;;;;;;11.15;3.95;;;16.50;99.90;;;;;;5030858;28;20048;-68
2022/08/02 06:53:21;;;;;;;11.93;4.10;;;16.50;99.90;;;;;;5045812;28;20119;-68
2022/08/02 06:55:47;;;;;;;8.43;3.53;;;16.70;99.90;;;;;;5063312;28;20052;-68
2022/08/02 06:58:13;;;;;;;7.22;3.78;;;16.70;99.90;;;;;;5063668;28;20047;-69
2022/08/02 07:00:40;;;;;;;9.15;3.30;;;16.80;99.90;;;;;;5058048;28;20139;-68
2022/08/02 07:03:06;;;;;;;11.20;4.20;;;16.80;99.90;;;;;;5068226;28;20044;-69
2022/08/02 07:05:32;;;;;;;9.63;4.22;;;16.90;99.90;;;;;;5065118;28;20063;-65
2022/08/02 07:07:58;;;;;;;8.35;3.30;;;17.00;99.90;;;;;;5084293;28;20043;-67
2022/08/02 07:10:23;;;;;;;7.55;3.35;;;17.00;99.90;;;;;;5042910;28;20148;-67
2022/08/02 07:12:49;;;;;;;9.63;3.83;;;17.20;99.90;;;;;;5072079;28;20083;-68
2022/08/02 07:15:15;;;;;;;9.07;3.30;;;17.30;99.90;;;;;;5066891;28;20048;-67
2022/08/02 07:17:41;;;;;;;12.05;3.25;;;17.40;99.90;;;;;;5065594;28;20255;-67
2022/08/02 07:20:08;;;;;;;7.80;3.40;;;17.50;99.90;;;;;;5064768;28;20534;-67
2022/08/02 07:22:34;;;;;;;9.27;3.55;;;17.50;99.90;;;;;;5060513;28;20044;-67
2022/08/02 07:25:00;;;;;;;9.57;3.55;;;17.70;99.90;;;;;;5064714;28;20066;-67
2022/08/02 07:27:27;;;;;;;9.40;3.38;;;17.80;99.90;;;;;;5066877;28;20052;-67
2022/08/02 07:29:53;;;;;;;6.75;3.00;;;17.90;99.90;;;;;;5082177;28;20295;-68
2022/08/02 07:32:21;;;;;;;6.07;2.60;;;17.90;99.90;;;;;;5076732;28;20048;-69
2022/08/02 07:34:47;;;;;;;4.82;2.38;;;18.00;99.90;;;;;;5048141;28;20067;-68
2022/08/02 07:37:13;;;;;;;7.53;3.10;;;18.10;99.90;;;;;;5071472;28;20577;-69
2022/08/02 07:39:39;;;;;;;11.60;3.08;;;18.10;99.90;;;;;;5055722;28;20037;-70
2022/08/02 07:42:04;;;;;;;6.40;2.50;;;18.10;99.90;;;;;;5040151;28;20137;-70
2022/08/02 07:44:33;;;;;;;6.40;2.20;;;18.10;99.90;;;;;;5068897;28;20055;-69
2022/08/02 07:47:03;;;;;;;4.35;2.20;;;18.10;99.90;;;;;;5051159;28;20275;-70
2022/08/02 07:49:30;;;;;;;5.78;2.42;;;18.10;99.90;;;;;;5064845;28;20536;-70
2022/08/02 07:51:56;;;;;;;5.15;2.20;;;18.20;99.90;;;;;;5058605;28;20428;-70
2022/08/02 07:54:22;;;;;;;4.93;2.35;;;18.20;99.90;;;;;;5066015;28;20047;-70
2022/08/02 07:56:48;;;;;;;6.65;2.13;;;18.30;99.90;;;;;;5057633;28;20044;-70
2022/08/02 07:59:14;;;;;;;4.75;1.95;;;18.30;99.90;;;;;;5065832;28;20470;-70
2022/08/02 08:01:40;;;;;;;8.07;2.50;;;18.40;99.90;;;;;;5058264;28;20076;-70
2022/08/02 08:04:06;;;;;;;4.93;1.85;;;18.50;99.90;;;;;;5072122;28;20079;-70
2022/08/02 08:06:32;;;;;;;4.60;2.08;;;18.60;99.90;;;;;;5048567;28;20053;-70
2022/08/02 08:08:58;;;;;;;4.22;1.83;;;18.70;99.90;;;;;;5072118;28;20493;-70
2022/08/02 08:11:24;;;;;;;4.22;1.80;;;18.70;99.90;;;;;;5048039;28;20073;-70
2022/08/02 08:13:49;;;;;;;6.97;1.90;;;18.80;99.90;;;;;;5065623;28;20106;-71
2022/08/02 08:16:15;;;;;;;3.85;1.83;;;19.00;99.90;;;;;;5078959;28;20130;-70
2022/08/02 08:18:42;;;;;;;4.40;1.60;;;19.00;99.90;;;;;;5063261;28;20064;-70
2022/08/02 08:21:08;;;;;;;6.15;1.70;;;19.10;99.90;;;;;;5074167;28;20563;-70
2022/08/02 08:23:35;;;;;;;3.75;1.73;;;19.10;99.90;;;;;;5073379;28;20048;-71
2022/08/02 08:26:00;;;;;;;3.20;1.80;;;19.30;99.90;;;;;;5074045;28;20049;-70
2022/08/02 08:28:26;;;;;;;3.17;1.33;;;19.30;99.90;;;;;;5072959;28;20059;-70
2022/08/02 08:30:52;;;;;;;6.95;1.75;;;19.40;99.90;;;;;;5055828;28;20049;-72
2022/08/02 08:33:18;;;;;;;4.53;1.38;;;19.40;99.90;;;;;;5079018;28;20064;-71
2022/08/02 08:35:43;;;;;;;3.88;1.75;;;19.50;99.90;;;;;;5054198;28;20040;-71
2022/08/02 08:38:09;;;;;;;7.63;2.42;;;19.60;99.90;;;;;;5080581;28;20057;-71
2022/08/02 08:40:35;;;;;;;4.78;1.50;;;19.60;99.90;;;;;;5079040;28;20598;-70
2022/08/02 08:43:03;;;;;;;6.85;2.05;;;19.70;99.90;;;;;;5054492;28;20059;-71
2022/08/02 08:45:28;;;;;;;6.68;2.00;;;19.80;99.90;;;;;;5067645;28;20118;-71
2022/08/02 08:48:12;;;;;;;5.38;2.42;;;19.90;99.90;;;;;;5073501;28;20041;-71
2022/08/02 08:50:46;;;;;;;3.92;1.70;;;20.00;99.90;;;;;;5056190;28;20049;-71
2022/08/02 08:53:13;;;;;;;7.32;1.98;;;20.00;99.90;;;;;;5064900;28;20466;-71
2022/08/02 08:55:40;;;;;;;3.55;1.65;;;20.00;99.90;;;;;;5062192;28;20060;-71
2022/08/02 08:58:05;;;;;;;6.50;1.90;;;20.10;99.90;;;;;;5060493;28;20284;-71
2022/08/02 09:00:34;;;;;;;5.15;1.58;;;20.10;99.90;;;;;;5059580;28;20087;-71
2022/08/02 09:03:05;;;;;;;3.60;1.50;;;20.20;99.90;;;;;;5064075;28;20041;-75
2022/08/02 09:05:33;;;;;;;3.72;1.88;;;20.20;99.90;;;;;;5048531;28;20075;-73
2022/08/02 09:07:59;;;;;;;3.17;1.70;;;20.20;99.90;;;;;;5063333;28;20028;-72
2022/08/02 09:10:31;;;;;;;5.53;2.08;;;20.40;99.90;;;;;;5054813;28;20075;-72
2022/08/02 09:13:09;;;;;;;4.20;1.70;;;20.40;99.90;;;;;;5063942;28;20136;-72
2022/08/02 09:15:36;;;;;;;3.60;1.60;;;20.50;99.90;;;;;;5052992;28;20079;-73
2022/08/02 09:18:07;;;;;;;3.70;1.70;;;20.50;99.90;;;;;;5043015;28;20216;-73
2022/08/02 09:20:34;;;;;;;3.03;1.60;;;20.50;99.90;;;;;;5064181;28;20127;-73
2022/08/02 09:23:08;;;;;;;4.97;2.00;;;20.70;99.90;;;;;;5064190;28;20040;-72
2022/08/02 09:25:34;;;;;;;3.63;1.73;;;20.80;99.90;;;;;;5065169;28;20040;-72
2022/08/02 09:28:05;;;;;;;4.18;1.60;;;20.80;99.90;;;;;;5077323;28;20206;-72
2022/08/02 09:30:31;;;;;;;5.85;1.95;;;20.90;99.90;;;;;;5078602;28;20456;-72
2022/08/02 09:32:58;;;;;;;3.17;1.58;;;21.00;99.90;;;;;;5076933;28;20050;-72
2022/08/02 09:35:38;;;;;;;5.32;1.73;;;21.00;99.90;;;;;;5061364;28;20067;-72
2022/08/02 09:38:13;;;;;;;6.07;2.10;;;21.20;99.90;;;;;;5076528;28;20055;-72
2022/08/02 09:40:40;;;;;;;4.25;1.92;;;21.40;99.90;;;;;;5061836;28;20167;-72
2022/08/02 09:43:07;;;;;;;3.70;2.28;;;21.50;99.90;;;;;;5056921;28;20052;-72
2022/08/02 09:45:34;;;;;;;2.67;1.65;;;21.50;99.90;;;;;;5070607;28;20057;-72
2022/08/02 09:48:10;;;;;;;4.05;1.90;;;21.60;99.90;;;;;;5070973;28;20051;-72
2022/08/02 09:50:39;;;;;;;5.00;1.95;;;21.80;99.90;;;;;;5063631;28;20052;-72
2022/08/02 09:53:10;;;;;;;4.80;2.13;;;21.90;99.90;;;;;;5086067;28;20575;-72
2022/08/02 09:55:36;;;;;;;3.67;1.60;;;22.10;99.90;;;;;;5064823;28;20052;-73
2022/08/02 09:58:18;;;;;;;4.53;1.80;;;22.20;99.90;;;;;;5066706;28;20051;-72
2022/08/02 10:00:55;;;;;;;4.18;1.88;;;22.20;99.90;;;;;;5058666;28;20055;-73
2022/08/02 10:03:21;;;;;;;4.22;2.05;;;22.20;99.90;;;;;;5065861;28;20618;-72
2022/08/02 10:05:54;;;;;;;4.57;2.38;;;22.30;99.90;;;;;;5061949;28;20161;-72
2022/08/02 10:08:20;;;;;;;3.33;1.63;;;22.30;99.90;;;;;;5067919;28;20438;-72
2022/08/02 10:10:47;;;;;;;4.85;1.90;;;22.30;99.90;;;;;;5061705;28;20036;-71
2022/08/02 10:13:14;;;;;;;3.53;2.70;;;22.30;99.90;;;;;;5053682;28;20048;-71
2022/08/02 10:15:40;;;;;;;3.17;2.15;;;22.60;99.90;;;;;;5051959;28;20083;-72
2022/08/02 10:18:07;;;;;;;5.43;2.35;;;22.70;99.90;;;;;;5047181;28;20048;-72
2022/08/02 10:20:43;;;;;;;4.60;2.42;;;22.80;99.90;;;;;;5051377;28;20101;-72
2022/08/02 10:23:12;;;;;;;6.00;2.55;;;22.80;99.90;;;;;;5063858;28;20041;-72
2022/08/02 10:25:38;;;;;;;6.63;2.50;;;22.90;99.90;;;;;;5049835;28;20051;-72
2022/08/02 10:28:06;;;;;;;4.72;2.55;;;23.10;99.90;;;;;;5053682;28;20119;-72
2022/08/02 10:30:38;;;;;;;7.55;3.30;;;23.00;99.90;;;;;;5069566;28;20452;-71
2022/08/02 10:33:06;;;;;;;4.82;2.88;;;23.00;99.90;;;;;;5082547;28;20075;-71
2022/08/02 10:35:39;;;;;;;5.00;2.95;;;23.00;99.90;;;;;;5052989;28;20140;-72
2022/08/02 10:38:07;;;;;;;5.75;3.28;;;23.00;99.90;;;;;;5074321;28;20044;-72
2022/08/02 10:40:42;;;;;;;5.90;3.17;;;23.00;99.90;;;;;;5075658;28;20049;-67
2022/08/02 10:43:08;;;;;;;6.60;2.80;;;23.00;99.90;;;;;;5078894;28;20044;-71
2022/08/02 10:45:34;;;;;;;4.90;3.30;;;23.10;99.90;;;;;;5074483;28;20054;-70
2022/08/02 10:48:07;;;;;;;9.95;4.70;;;23.30;99.90;;;;;;5098366;28;20043;-71
2022/08/02 10:50:45;;;;;;;6.68;3.70;;;23.40;99.90;;;;;;5073841;28;20086;-71
2022/08/02 10:53:31;;;;;;;6.75;4.13;;;23.50;99.90;;;;;;5069003;28;20086;-70
2022/08/02 10:56:03;;;;;;;6.82;3.72;;;23.60;99.90;;;;;;5081904;28;20080;-70
2022/08/02 10:58:31;;;;;;;7.75;4.25;;;23.60;99.90;;;;;;5075986;28;20044;-70
2022/08/02 11:01:31;;;;;;;7.75;4.28;;;23.80;99.90;;;;;;5092908;28;20079;-70
2022/08/02 11:03:58;;;;;;;9.20;4.22;;;23.90;99.90;;;;;;5075590;28;20036;-70
2022/08/02 11:06:24;;;;;;;7.25;4.60;;;23.90;99.90;;;;;;5068995;28;20056;-70
2022/08/02 11:08:50;;;;;;;7.32;4.35;;;24.00;99.90;;;;;;5079021;28;20043;-70
2022/08/02 11:11:17;;;;;;;6.90;4.45;;;24.10;99.90;;;;;;5088032;28;20032;-70
2022/08/02 11:14:07;;;;;;;8.25;5.13;;;24.20;99.90;;;;;;5063629;28;20048;-72
2022/08/02 11:16:55;;;;;;;7.63;4.82;;;24.30;99.90;;;;;;5067057;28;20139;-72
2022/08/02 11:19:26;;;;;;;12.30;4.55;;;24.40;99.90;;;;;;5087397;28;20492;-70
2022/08/02 11:22:02;;;;;;;7.20;4.57;;;24.40;99.90;;;;;;5079170;28;20045;-70
2022/08/02 11:24:33;;;;;;;10.50;4.63;;;24.50;99.90;;;;;;5076718;28;20082;-70
2022/08/02 11:27:01;;;;;;;5.68;3.42;;;24.60;99.90;;;;;;5076248;28;20056;-71
2022/08/02 11:29:32;;;;;;;5.93;4.10;;;24.60;99.90;;;;;;5098411;28;20040;-72
2022/08/02 11:31:58;;;;;;;4.43;3.22;;;24.70;99.90;;;;;;5086299;28;20044;-70
2022/08/02 11:34:25;;;;;;;6.32;4.10;;;24.80;99.90;;;;;;5090205;28;20047;-69
2022/08/02 11:36:51;;;;;;;5.95;3.55;;;24.90;99.90;;;;;;5064346;28;20590;-69
2022/08/02 11:39:22;;;;;;;5.55;3.58;;;24.90;99.90;;;;;;5078665;28;20067;-68
2022/08/02 11:41:53;;;;;;;5.82;3.00;;;24.90;99.90;;;;;;5090893;28;20098;-69
2022/08/02 11:44:19;;;;;;;5.40;3.00;;;25.00;99.90;;;;;;5095125;28;20048;-74
2022/08/02 11:46:57;;;;;;;9.32;3.83;;;25.10;99.90;;;;;;5076218;28;20052;-70
2022/08/02 11:49:23;;;;;;;6.22;3.78;;;25.20;99.90;;;;;;5096002;28;20459;-68
2022/08/02 11:51:52;;;;;;;5.40;3.00;;;25.30;99.90;;;;;;5069971;28;20035;-69
2022/08/02 11:54:26;;;;;;;;;;;25.40;99.90;;;;;;5086290;28;20037;-71
2022/08/02 11:56:52;;;;;;;5.75;3.45;;;25.30;99.90;;;;;;5091973;28;19920;-70
2022/08/02 11:59:18;;;;;;;5.35;2.88;;;25.40;99.90;;;;;;5097624;28;20095;-70
2022/08/02 12:01:44;;;;;;;6.53;3.17;;;25.60;99.90;;;;;;5095713;28;20067;-70
2022/08/02 12:04:10;;;;;;;6.72;3.15;;;25.70;99.90;;;;;;5094969;28;20048;-71
2022/08/02 12:06:35;;;;;;;4.55;2.80;;;25.90;99.90;;;;;;5078665;28;20075;-69
2022/08/02 12:09:06;;;;;;;4.78;3.40;;;26.00;99.90;;;;;;5096193;28;20055;-69
2022/08/02 12:11:33;;;;;;;5.90;3.28;;;26.10;99.90;;;;;;5094228;28;20048;-69
2022/08/02 12:13:59;;;;;;;4.47;3.03;;;26.20;99.90;;;;;;5059626;28;20050;-69
2022/08/02 12:19:28;;;;;;;6.03;3.13;;;25.90;99.90;;;;;;5078435;28;20109;-68
2022/08/02 12:22:12;;;;;;;5.07;3.13;;;26.00;99.90;;;;;;5014227;28;20059;-69
2022/08/02 12:24:39;;;;;;;4.35;2.95;;;26.10;99.90;;;;;;5057667;28;20181;-69
2022/08/02 12:27:06;;;;;;;7.00;3.13;;;26.20;99.90;;;;;;5063460;28;20052;-69
2022/08/02 12:29:41;;;;;;;4.28;2.35;;;26.20;99.90;;;;;;5074900;28;20051;-68
2022/08/02 12:32:08;;;;;;;4.28;2.25;;;26.00;99.90;;;;;;5058638;28;20063;-69
2022/08/02 12:34:34;;;;;;;2.63;1.90;;;26.00;99.90;;;;;;5059447;28;20040;-68
2022/08/02 12:37:08;;;;;;;3.05;1.80;;;26.00;99.90;;;;;;5060293;28;20127;-68
2022/08/02 12:39:38;;;;;;;4.05;2.20;;;26.00;99.90;;;;;;5079379;28;20208;-68
2022/08/02 12:42:06;;;;;;;5.32;2.10;;;26.20;99.90;;;;;;5079205;28;20082;-69
2022/08/02 12:44:32;;;;;;;5.28;2.20;;;26.30;99.90;;;;;;5080313;28;20047;-69
2022/08/02 12:47:05;;;;;;;5.50;2.95;;;26.40;99.90;;;;;;5074792;28;20068;-68
2022/08/02 12:49:31;;;;;;;4.15;2.40;;;26.40;99.90;;;;;;5049092;28;20076;-68
2022/08/02 12:51:57;;;;;;;4.78;2.58;;;26.50;99.90;;;;;;5074580;28;20048;-69
2022/08/02 12:54:25;;;;;;;5.50;3.13;;;26.60;99.90;;;;;;5066313;28;20044;-69
2022/08/02 12:56:51;;;;;;;8.75;3.83;;;26.60;99.90;;;;;;5074405;28;20043;-69